createdAt,value
2019-02-09T00:02:11.929Z,149651.81
2019-02-09T00:04:42.540Z,149630.22
2019-02-09T00:07:13.328Z,149609.94
2019-02-09T00:09:44.348Z,149592.16
2019-02-09T00:12:15.347Z,149580.75
2019-02-09T00:14:46.380Z,149578.19
2019-02-09T00:17:17.317Z,149568.06
2019-02-09T00:19:49.080Z,149570.61
2019-02-09T00:22:19.787Z,149560.42
2019-02-09T00:24:50.719Z,149556.64
2019-02-09T00:27:21.381Z,149557.92
2019-02-09T00:29:52.061Z,149550.28
2019-02-09T00:32:23.120Z,149554.13
2019-02-09T00:34:54.128Z,149549.02
2019-02-09T00:37:24.816Z,149559.19
2019-02-09T00:39:55.883Z,149551.56
2019-02-09T00:42:26.629Z,149550.28
2019-02-09T00:44:57.480Z,149561.70
2019-02-09T00:47:28.065Z,149556.64
2019-02-09T00:49:58.687Z,149547.78
2019-02-09T00:52:29.679Z,149573.13
2019-02-09T00:55:00.346Z,149565.55
2019-02-09T00:57:31.222Z,149566.78
2019-02-09T01:00:01.911Z,149566.78
2019-02-09T01:02:32.628Z,149555.36
2019-02-09T01:05:03.301Z,149550.28
2019-02-09T01:07:34.070Z,149549.02
2019-02-09T01:10:07.079Z,149552.84
2019-02-09T01:12:37.793Z,149545.22
2019-02-09T01:15:12.742Z,149528.69
2019-02-09T01:17:43.488Z,149519.84
2019-02-09T01:20:21.248Z,149500.80
2019-02-09T01:22:52.371Z,149495.72
2019-02-09T01:25:23.287Z,149489.38
2019-02-09T01:27:54.074Z,149489.38
2019-02-09T01:30:26.967Z,149474.13
2019-02-09T01:32:57.948Z,149476.69
2019-02-09T01:35:28.770Z,149476.69
2019-02-09T01:37:59.703Z,149476.69
2019-02-09T01:40:30.943Z,149484.31
2019-02-09T01:43:01.913Z,149466.56
2019-02-09T01:45:33.149Z,149461.48
2019-02-09T01:48:04.737Z,149467.83
2019-02-09T01:50:35.748Z,149466.56
2019-02-09T01:53:06.869Z,149477.97
2019-02-09T01:55:37.737Z,149458.94
2019-02-09T01:58:08.791Z,149484.31
2019-02-09T02:00:39.991Z,149474.13
2019-02-09T02:03:10.848Z,149465.28
2019-02-09T02:05:41.762Z,149470.34
2019-02-09T02:08:14.954Z,149469.06
2019-02-09T02:10:46.197Z,149469.06
2019-02-09T02:13:16.723Z,149466.56
2019-02-09T02:15:47.330Z,149466.56
2019-02-09T02:18:18.125Z,149451.31
2019-02-09T02:20:48.975Z,149446.23
2019-02-09T02:23:19.750Z,149448.80
2019-02-09T02:25:50.333Z,149453.86
2019-02-09T02:28:20.930Z,149452.58
2019-02-09T02:30:51.709Z,149474.13
2019-02-09T02:33:22.757Z,149486.81
2019-02-09T02:35:53.316Z,149507.14
2019-02-09T02:38:24.308Z,149523.63
2019-02-09T02:40:54.885Z,149537.55
2019-02-09T02:43:25.456Z,149546.50
2019-02-09T02:45:56.176Z,149593.44
2019-02-09T02:48:26.866Z,149593.44
2019-02-09T02:50:57.433Z,149628.98
2019-02-09T02:53:28.095Z,149626.42
2019-02-09T02:55:58.630Z,149635.28
2019-02-09T02:58:29.254Z,149626.42
2019-02-09T03:01:00.119Z,149636.56
2019-02-09T03:03:30.863Z,149645.47
2019-02-09T03:06:01.685Z,149635.28
2019-02-09T03:08:32.375Z,149654.33
2019-02-09T03:11:03.311Z,149654.33
2019-02-09T03:13:33.888Z,149653.05
2019-02-09T03:16:04.656Z,149651.81
2019-02-09T03:18:35.442Z,149634.06
2019-02-09T03:21:06.019Z,149627.70
2019-02-09T03:23:36.550Z,149631.48
2019-02-09T03:26:07.251Z,149668.31
2019-02-09T03:28:38.241Z,149658.13
2019-02-09T03:31:08.976Z,149673.38
2019-02-09T03:33:39.532Z,149667.03
2019-02-09T03:36:10.082Z,149670.83
2019-02-09T03:38:40.963Z,149677.17
2019-02-09T03:41:11.482Z,149674.66
2019-02-09T03:43:42.008Z,149667.03
2019-02-09T03:46:12.809Z,149683.52
2019-02-09T03:48:43.353Z,149673.38
2019-02-09T03:51:13.857Z,149655.61
2019-02-09T03:53:44.420Z,149645.47
2019-02-09T03:56:15.223Z,149661.97
2019-02-09T03:58:45.890Z,149665.75
2019-02-09T04:01:16.503Z,149668.31
2019-02-09T04:03:47.373Z,149668.31
2019-02-09T04:06:18.171Z,149655.61
2019-02-09T04:08:49.071Z,149674.66
2019-02-09T04:11:19.619Z,149663.23
2019-02-09T04:13:50.156Z,149668.31
2019-02-09T04:16:21.089Z,149673.38
2019-02-09T04:18:51.690Z,149682.23
2019-02-09T04:21:22.266Z,149679.73
2019-02-09T04:23:52.918Z,149694.94
2019-02-09T04:26:23.744Z,149683.52
2019-02-09T04:28:54.627Z,149675.89
2019-02-09T04:31:25.279Z,149654.33
2019-02-09T04:33:55.840Z,149646.70
2019-02-09T04:36:26.463Z,149621.36
2019-02-09T04:38:57.058Z,149606.14
2019-02-09T04:41:27.586Z,149580.75
2019-02-09T04:43:58.472Z,149568.06
2019-02-09T04:46:29.074Z,149550.28
2019-02-09T04:48:59.658Z,149542.72
2019-02-09T04:51:30.209Z,149533.75
2019-02-09T04:54:01.026Z,149535.03
2019-02-09T04:56:31.856Z,149535.03
2019-02-09T04:59:02.397Z,149524.91
2019-02-09T05:01:32.936Z,149524.91
2019-02-09T05:04:03.792Z,149524.91
2019-02-09T05:06:34.308Z,149537.55
2019-02-09T05:09:07.092Z,149547.78
2019-02-09T05:11:37.987Z,149540.11
2019-02-09T05:14:08.527Z,149533.75
2019-02-09T05:16:39.390Z,149564.27
2019-02-09T05:19:10.426Z,149569.34
2019-02-09T05:21:41.235Z,149589.61
2019-02-09T05:24:11.859Z,149597.23
2019-02-09T05:26:42.386Z,149601.03
2019-02-09T05:29:12.904Z,149597.23
2019-02-09T05:31:43.463Z,149595.95
2019-02-09T05:34:14.277Z,149603.59
2019-02-09T05:36:45.051Z,149598.52
2019-02-09T05:39:15.746Z,149613.72
2019-02-09T05:41:46.282Z,149626.42
2019-02-09T05:44:17.083Z,149623.86
2019-02-09T05:46:47.716Z,149626.42
2019-02-09T05:49:18.244Z,149628.98
2019-02-09T05:51:48.769Z,149634.06
2019-02-09T05:54:19.426Z,149641.63
2019-02-09T05:56:51.019Z,149639.12
2019-02-09T05:59:21.604Z,149622.63
2019-02-09T06:01:52.132Z,149616.28
2019-02-09T06:04:23.142Z,149621.36
2019-02-09T06:06:54.175Z,149621.36
2019-02-09T06:09:24.980Z,149606.14
2019-02-09T06:11:55.616Z,149606.14
2019-02-09T06:14:26.204Z,149606.14
2019-02-09T06:16:56.771Z,149598.52
2019-02-09T06:19:27.961Z,149606.14
2019-02-09T06:21:58.494Z,149601.03
2019-02-09T06:24:29.072Z,149594.67
2019-02-09T06:26:59.872Z,149588.38
2019-02-09T06:29:30.540Z,149608.66
2019-02-09T06:32:01.095Z,149616.28
2019-02-09T06:34:31.621Z,149618.80
2019-02-09T06:37:02.595Z,149611.22
2019-02-09T06:39:33.209Z,149606.14
2019-02-09T06:42:03.745Z,149609.94
2019-02-09T06:44:34.447Z,149598.52
2019-02-09T06:47:04.984Z,149602.31
2019-02-09T06:49:35.534Z,149613.72
2019-02-09T06:52:06.164Z,149623.86
2019-02-09T06:54:36.724Z,149621.36
2019-02-09T06:57:07.395Z,149590.89
2019-02-09T06:59:38.171Z,149549.02
2019-02-09T07:02:09.161Z,149472.91
2019-02-09T07:04:39.732Z,149434.83
2019-02-09T07:07:10.245Z,149419.63
2019-02-09T07:09:40.793Z,149441.17
2019-02-09T07:12:11.346Z,149457.66
2019-02-09T07:14:41.938Z,149461.48
2019-02-09T07:17:12.687Z,149479.25
2019-02-09T07:19:43.604Z,149481.75
2019-02-09T07:22:14.258Z,149477.97
2019-02-09T07:24:44.987Z,149457.66
2019-02-09T07:27:15.525Z,149447.52
2019-02-09T07:29:46.047Z,149467.83
2019-02-09T07:32:16.553Z,149470.34
2019-02-09T07:34:47.121Z,149458.94
2019-02-09T07:37:17.662Z,149446.23
2019-02-09T07:39:48.983Z,149443.72
2019-02-09T07:42:19.556Z,149428.48
2019-02-09T07:44:50.882Z,149432.31
2019-02-09T07:47:21.695Z,149477.97
2019-02-09T07:49:52.202Z,149461.48
2019-02-09T07:52:22.759Z,149423.41
2019-02-09T07:54:53.586Z,149409.50
2019-02-09T07:57:24.371Z,149405.66
2019-02-09T07:59:55.242Z,149405.66
2019-02-09T08:02:25.772Z,149408.22
2019-02-09T08:04:56.588Z,149396.81
2019-02-09T08:07:27.476Z,149419.63
2019-02-09T08:09:58.274Z,149447.52
2019-02-09T08:12:28.753Z,149537.55
2019-02-09T08:14:59.286Z,149626.42
2019-02-09T08:17:29.765Z,149726.70
2019-02-09T08:20:00.375Z,149796.47
2019-02-09T08:22:30.938Z,149847.30
2019-02-09T08:25:01.470Z,149899.38
2019-02-09T08:27:31.973Z,149933.66
2019-02-09T08:30:02.989Z,149971.75
2019-02-09T08:32:34.639Z,150003.48
2019-02-09T08:35:07.017Z,150039.12
2019-02-09T08:37:37.865Z,150101.37
2019-02-09T08:40:09.892Z,150032.75
2019-02-09T08:42:40.408Z,150088.70
2019-02-09T08:45:18.402Z,150189.09
2019-02-09T08:47:49.041Z,150172.56
2019-02-09T08:50:31.899Z,150123.02
2019-02-09T08:53:02.783Z,150143.33
2019-02-09T08:55:33.728Z,150198.02
2019-02-09T08:58:04.932Z,150241.22
2019-02-09T09:00:39.588Z,150288.27
2019-02-09T09:03:10.701Z,150264.09
2019-02-09T09:05:42.916Z,150157.33
2019-02-09T09:08:13.543Z,150035.31
2019-02-09T09:10:44.188Z,150124.25
2019-02-09T09:13:14.870Z,150205.61
2019-02-09T09:15:49.544Z,150281.91
2019-02-09T09:18:22.923Z,150332.77
2019-02-09T09:20:57.472Z,150331.48
2019-02-09T09:23:28.103Z,150309.88
2019-02-09T09:25:58.684Z,150379.84
2019-02-09T09:28:29.265Z,150353.14
2019-02-09T09:31:00.078Z,150331.48
2019-02-09T09:33:30.950Z,150297.16
2019-02-09T09:36:01.683Z,150203.09
2019-02-09T09:38:32.505Z,150190.38
2019-02-09T09:41:03.498Z,150131.89
2019-02-09T09:43:34.283Z,150097.58
2019-02-09T09:46:05.213Z,150012.45
2019-02-09T09:48:35.761Z,150013.73
2019-02-09T09:51:06.430Z,150069.62
2019-02-09T09:53:37.229Z,150161.12
2019-02-09T09:56:08.417Z,150227.25
2019-02-09T09:58:41.881Z,150316.23
2019-02-09T10:01:12.840Z,150327.69
2019-02-09T10:03:43.450Z,150358.22
2019-02-09T10:06:14.353Z,150377.31
2019-02-09T10:08:45.222Z,150341.69
2019-02-09T10:11:15.933Z,150337.84
2019-02-09T10:13:46.564Z,150387.48
2019-02-09T10:16:17.097Z,150437.13
2019-02-09T10:18:48.133Z,150468.97
2019-02-09T10:21:18.898Z,150462.59
2019-02-09T10:23:49.418Z,150437.13
2019-02-09T10:26:19.937Z,150323.89
2019-02-09T10:28:50.525Z,150248.86
2019-02-09T10:31:21.540Z,150232.34
2019-02-09T10:33:52.046Z,150191.66
2019-02-09T10:36:22.602Z,150156.05
2019-02-09T10:38:53.100Z,150223.41
2019-02-09T10:41:23.751Z,150281.91
2019-02-09T10:43:54.395Z,150251.38
2019-02-09T10:46:24.966Z,150286.98
2019-02-09T10:48:55.578Z,150292.06
2019-02-09T10:51:26.175Z,150242.50
2019-02-09T10:53:57.190Z,150372.19
2019-02-09T10:56:28.637Z,150325.17
2019-02-09T10:58:59.583Z,150274.27
2019-02-09T11:01:30.101Z,150234.84
2019-02-09T11:04:00.769Z,150187.80
2019-02-09T11:06:31.465Z,150177.64
2019-02-09T11:09:02.037Z,150162.41
2019-02-09T11:11:32.840Z,150172.56
2019-02-09T11:14:14.058Z,150176.36
2019-02-09T11:16:42.151Z,150181.50
2019-02-09T11:19:13.585Z,150243.78
2019-02-09T11:22:03.179Z,150383.64
2019-02-09T11:24:33.998Z,150367.11
2019-02-09T11:27:04.742Z,150297.16
2019-02-09T11:29:35.600Z,150355.66
2019-02-09T11:32:06.347Z,150372.19
2019-02-09T11:34:36.929Z,150398.94
2019-02-09T11:37:08.084Z,150493.09
2019-02-09T11:39:38.845Z,150513.48
2019-02-09T11:42:09.563Z,150607.69
2019-02-09T11:44:41.342Z,150685.33
2019-02-09T11:47:12.096Z,150714.61
2019-02-09T11:49:44.461Z,150791.09
2019-02-09T11:52:15.342Z,150905.73
2019-02-09T11:54:45.877Z,150877.72
2019-02-09T11:57:16.518Z,150835.66
2019-02-09T11:59:47.409Z,150806.36
2019-02-09T12:02:18.090Z,150793.61
2019-02-09T12:04:49.098Z,150761.78
2019-02-09T12:07:20.160Z,150802.56
2019-02-09T12:09:50.718Z,150807.64
2019-02-09T12:12:21.601Z,150783.44
2019-02-09T12:14:52.277Z,150872.63
2019-02-09T12:17:23.075Z,150802.56
2019-02-09T12:19:53.722Z,150554.22
2019-02-09T12:22:24.706Z,150426.97
2019-02-09T12:24:55.327Z,150355.66
2019-02-09T12:27:26.358Z,150332.77
2019-02-09T12:29:57.152Z,150264.09
2019-02-09T12:32:27.785Z,150206.89
2019-02-09T12:34:58.507Z,150187.80
2019-02-09T12:37:29.190Z,150075.98
2019-02-09T12:39:59.897Z,149984.47
2019-02-09T12:42:30.488Z,149914.59
2019-02-09T12:45:01.337Z,149914.59
2019-02-09T12:47:32.334Z,149923.47
2019-02-09T12:50:03.298Z,149946.31
2019-02-09T12:52:35.257Z,149960.31
2019-02-09T12:55:06.565Z,150000.97
2019-02-09T12:57:37.191Z,150036.59
2019-02-09T13:00:17.967Z,150078.50
2019-02-09T13:02:48.707Z,150102.66
2019-02-09T13:05:19.552Z,150126.81
2019-02-09T13:07:50.562Z,150181.50
2019-02-09T13:10:21.404Z,150213.25
2019-02-09T13:12:51.936Z,150222.12
2019-02-09T13:15:25.296Z,150284.47
2019-02-09T13:17:56.138Z,150339.13
2019-02-09T13:20:28.213Z,150334.05
2019-02-09T13:22:59.369Z,150340.41
2019-02-09T13:25:30.047Z,150331.48
2019-02-09T13:28:00.864Z,150353.14
2019-02-09T13:30:32.696Z,150368.39
2019-02-09T13:33:03.431Z,150378.56
2019-02-09T13:35:33.907Z,150355.66
2019-02-09T13:38:05.177Z,150377.31
2019-02-09T13:40:35.688Z,150387.48
2019-02-09T13:43:06.619Z,150410.44
2019-02-09T13:45:43.906Z,150398.94
2019-02-09T13:48:14.417Z,150407.86
2019-02-09T13:50:44.938Z,150412.94
2019-02-09T13:53:15.445Z,150369.67
2019-02-09T13:55:45.923Z,150306.08
2019-02-09T13:58:16.449Z,150245.02
2019-02-09T14:00:46.979Z,150233.56
2019-02-09T14:03:17.471Z,150224.69
2019-02-09T14:05:47.968Z,150196.72
2019-02-09T14:08:18.598Z,150157.33
2019-02-09T14:10:51.381Z,150061.98
2019-02-09T14:13:27.006Z,149937.45
2019-02-09T14:15:57.476Z,149853.61
2019-02-09T14:18:28.424Z,149774.91
2019-02-09T14:20:58.976Z,149729.22
2019-02-09T14:23:29.671Z,149675.89
2019-02-09T14:26:00.164Z,149640.41
2019-02-09T14:28:31.422Z,149574.41
2019-02-09T14:31:01.965Z,149555.36
2019-02-09T14:33:32.542Z,149535.03
2019-02-09T14:36:03.394Z,149523.63
2019-02-09T14:38:34.480Z,149529.97
2019-02-09T14:41:05.275Z,149573.13
2019-02-09T14:43:35.839Z,149601.03
2019-02-09T14:46:06.703Z,149601.03
2019-02-09T14:48:37.301Z,149620.08
2019-02-09T14:51:07.872Z,149627.70
2019-02-09T14:53:38.508Z,149649.25
2019-02-09T14:56:09.073Z,149639.12
2019-02-09T14:58:39.918Z,149642.91
2019-02-09T15:01:10.487Z,149650.53
2019-02-09T15:03:41.070Z,149659.41
2019-02-09T15:06:11.984Z,149677.17
2019-02-09T15:08:42.885Z,149669.55
2019-02-09T15:11:13.401Z,149677.17
2019-02-09T15:13:44.236Z,149696.22
2019-02-09T15:16:21.749Z,149705.09
2019-02-09T15:18:52.419Z,149715.28
2019-02-09T15:21:23.298Z,149736.84
2019-02-09T15:23:53.886Z,149739.34
2019-02-09T15:26:24.529Z,149745.70
2019-02-09T15:28:55.107Z,149755.84
2019-02-09T15:31:26.001Z,149790.17
2019-02-09T15:33:56.890Z,149804.11
2019-02-09T15:36:27.417Z,149819.33
2019-02-09T15:38:58.054Z,149849.81
2019-02-09T15:41:28.603Z,149871.39
2019-02-09T15:43:59.239Z,149879.03
2019-02-09T15:46:29.784Z,149900.59
2019-02-09T15:49:00.528Z,149885.38
2019-02-09T15:51:31.276Z,149917.11
2019-02-09T15:54:01.939Z,149934.89
2019-02-09T15:56:32.747Z,149942.53
2019-02-09T15:59:03.684Z,149951.39
2019-02-09T16:01:34.298Z,149951.39
2019-02-09T16:04:05.332Z,149942.53
2019-02-09T16:06:35.830Z,149943.81
2019-02-09T16:09:09.616Z,149941.25
2019-02-09T16:11:40.168Z,149952.67
2019-02-09T16:14:10.717Z,149946.31
2019-02-09T16:16:41.479Z,149933.66
2019-02-09T16:19:11.983Z,149924.75
2019-02-09T16:21:42.630Z,149918.39
2019-02-09T16:24:13.138Z,149922.23
2019-02-09T16:26:43.854Z,149927.31
2019-02-09T16:29:14.800Z,149927.31
2019-02-09T16:31:45.326Z,149912.03
2019-02-09T16:34:15.794Z,149914.59
2019-02-09T16:36:46.322Z,149900.59
2019-02-09T16:39:17.049Z,149903.16
2019-02-09T16:41:47.556Z,149905.67
2019-02-09T16:44:18.040Z,149903.16
2019-02-09T16:46:48.544Z,149899.38
2019-02-09T16:49:19.106Z,149909.52
2019-02-09T16:51:49.851Z,149913.31
2019-02-09T16:54:20.516Z,149917.11
2019-02-09T16:56:51.014Z,149914.59
2019-02-09T16:59:21.482Z,149915.88
2019-02-09T17:01:52.030Z,149903.16
2019-02-09T17:04:22.513Z,149889.17
2019-02-09T17:06:53.022Z,149872.67
2019-02-09T17:09:23.531Z,149866.31
2019-02-09T17:11:54.007Z,149853.61
2019-02-09T17:14:24.795Z,149856.17
2019-02-09T17:16:55.610Z,149857.45
2019-02-09T17:19:26.387Z,149858.73
2019-02-09T17:21:56.966Z,149854.89
2019-02-09T17:24:27.801Z,149862.53
2019-02-09T17:26:58.683Z,149858.73
2019-02-09T17:29:29.294Z,149843.47
2019-02-09T17:31:59.999Z,149842.19
2019-02-09T17:34:30.544Z,149854.89
2019-02-09T17:37:01.400Z,149853.61
2019-02-09T17:39:32.310Z,149849.81
2019-02-09T17:42:03.562Z,149858.73
2019-02-09T17:44:34.105Z,149852.38
2019-02-09T17:47:04.928Z,149837.11
2019-02-09T17:49:35.457Z,149829.52
2019-02-09T17:52:06.436Z,149814.25
2019-02-09T17:54:37.556Z,149829.52
2019-02-09T17:57:08.784Z,149834.59
2019-02-09T17:59:39.644Z,149843.47
2019-02-09T18:02:10.248Z,149834.59
2019-02-09T18:04:48.318Z,149820.61
2019-02-09T18:07:13.479Z,149810.45
2019-02-09T18:09:44.677Z,149814.25
2019-02-09T18:12:15.182Z,149809.19
2019-02-09T18:14:45.950Z,149801.59
2019-02-09T18:17:16.463Z,149799.03
2019-02-09T18:19:47.012Z,149795.25
2019-02-09T18:22:18.246Z,149781.25
2019-02-09T18:24:49.304Z,149778.70
2019-02-09T18:27:20.482Z,149783.81
2019-02-09T18:29:51.054Z,149793.97
2019-02-09T18:32:22.137Z,149790.17
2019-02-09T18:34:56.072Z,149799.03
2019-02-09T18:37:24.955Z,149806.67
2019-02-09T18:39:55.767Z,149804.11
2019-02-09T18:42:26.310Z,149801.59
2019-02-09T18:44:56.898Z,149799.03
2019-02-09T18:47:27.701Z,149804.11
2019-02-09T18:49:58.501Z,149807.91
2019-02-09T18:52:29.214Z,149796.47
2019-02-09T18:55:00.333Z,149787.61
2019-02-09T18:57:30.899Z,149792.69
2019-02-09T19:00:01.784Z,149781.25
2019-02-09T19:02:38.414Z,149779.97
2019-02-09T19:05:05.333Z,149778.70
2019-02-09T19:07:36.215Z,149767.28
2019-02-09T19:10:10.769Z,149762.20
2019-02-09T19:12:41.329Z,149769.83
2019-02-09T19:15:12.561Z,149757.12
2019-02-09T19:17:43.383Z,149762.20
2019-02-09T19:20:20.877Z,149755.84
2019-02-09T19:22:51.761Z,149763.48
2019-02-09T19:25:22.992Z,149753.34
2019-02-09T19:27:53.896Z,149745.70
2019-02-09T19:30:26.108Z,149730.50
2019-02-09T19:32:57.246Z,149708.92
2019-02-09T19:35:27.763Z,149703.84
2019-02-09T19:37:58.296Z,149706.36
2019-02-09T19:40:28.912Z,149694.94
2019-02-09T19:42:59.965Z,149689.88
2019-02-09T19:45:32.680Z,149680.97
2019-02-09T19:48:03.689Z,149675.89
2019-02-09T19:50:34.479Z,149677.17
2019-02-09T19:53:05.792Z,149684.81
2019-02-09T19:55:37.366Z,149669.55
2019-02-09T19:58:08.593Z,149668.31
2019-02-09T20:00:42.661Z,149669.55
2019-02-09T20:03:13.437Z,149664.47
2019-02-09T20:05:44.322Z,149655.61
2019-02-09T20:08:15.120Z,149660.69
2019-02-09T20:10:46.435Z,149661.97
2019-02-09T20:13:16.968Z,149675.89
2019-02-09T20:15:47.978Z,149672.09
2019-02-09T20:18:18.455Z,149689.88
2019-02-09T20:20:49.014Z,149682.23
2019-02-09T20:23:19.816Z,149694.94
2019-02-09T20:25:50.429Z,149691.16
2019-02-09T20:28:20.982Z,149702.58
2019-02-09T20:30:51.520Z,149708.92
2019-02-09T20:33:22.421Z,149726.70
2019-02-09T20:35:52.917Z,149725.42
2019-02-09T20:38:23.479Z,149738.12
2019-02-09T20:41:02.185Z,149739.34
2019-02-09T20:43:32.658Z,149744.42
2019-02-09T20:46:03.491Z,149762.20
2019-02-09T20:48:34.555Z,149773.63
2019-02-09T20:51:05.563Z,149773.63
2019-02-09T20:53:36.304Z,149772.39
2019-02-09T20:56:07.368Z,149771.11
2019-02-09T20:58:38.084Z,149771.11
2019-02-09T21:01:08.831Z,149769.83
2019-02-09T21:03:39.854Z,149776.19
2019-02-09T21:06:11.383Z,149768.55
2019-02-09T21:08:42.272Z,149767.28
2019-02-09T21:11:12.963Z,149779.97
2019-02-09T21:13:43.556Z,149772.39
2019-02-09T21:16:14.346Z,149778.70
2019-02-09T21:18:45.470Z,149778.70
2019-02-09T21:21:16.720Z,149786.33
2019-02-09T21:23:47.599Z,149796.47
2019-02-09T21:26:18.376Z,149793.97
2019-02-09T21:28:49.309Z,149799.03
2019-02-09T21:31:19.934Z,149804.11
2019-02-09T21:33:50.630Z,149813.02
2019-02-09T21:36:22.192Z,149802.83
2019-02-09T21:38:52.938Z,149814.25
2019-02-09T21:41:23.597Z,149811.73
2019-02-09T21:43:54.570Z,149811.73
2019-02-09T21:46:25.407Z,149806.67
2019-02-09T21:48:56.599Z,149809.19
2019-02-09T21:51:27.496Z,149804.11
2019-02-09T21:53:58.140Z,149816.81
2019-02-09T21:56:29.483Z,149801.59
2019-02-09T21:59:00.047Z,149807.91
2019-02-09T22:01:31.751Z,149796.47
2019-02-09T22:04:02.428Z,149813.02
2019-02-09T22:06:32.984Z,149801.59
2019-02-09T22:09:03.601Z,149809.19
2019-02-09T22:11:34.165Z,149801.59
2019-02-09T22:14:05.075Z,149815.53
2019-02-09T22:16:36.899Z,149809.19
2019-02-09T22:19:07.531Z,149811.73
2019-02-09T22:21:38.167Z,149801.59
2019-02-09T22:24:08.707Z,149793.97
2019-02-09T22:26:39.409Z,149821.89
2019-02-09T22:29:10.274Z,149800.31
2019-02-09T22:31:41.047Z,149816.81
2019-02-09T22:34:11.916Z,149815.53
2019-02-09T22:36:42.518Z,149820.61
2019-02-09T22:39:12.980Z,149834.59
2019-02-09T22:41:48.949Z,149829.52
2019-02-09T22:44:15.733Z,149837.11
2019-02-09T22:46:46.296Z,149832.03
2019-02-09T22:49:16.751Z,149837.11
2019-02-09T22:51:47.577Z,149832.03
2019-02-09T22:54:18.038Z,149830.75
2019-02-09T22:56:48.631Z,149837.11
2019-02-09T22:59:19.163Z,149833.31
2019-02-09T23:01:53.435Z,149847.30
2019-02-09T23:05:11.095Z,149856.17
2019-02-09T23:07:42.612Z,149849.81
2019-02-09T23:10:15.543Z,149876.52
2019-02-09T23:12:48.654Z,149867.59
2019-02-09T23:15:18.581Z,149866.31
2019-02-09T23:17:49.206Z,149885.38
2019-02-09T23:20:19.674Z,149868.88
2019-02-09T23:22:50.156Z,149871.39
2019-02-09T23:25:20.696Z,149877.75
2019-02-09T23:27:51.356Z,149866.31
2019-02-09T23:30:23.601Z,149871.39
2019-02-09T23:32:54.310Z,149884.09
2019-02-09T23:35:25.054Z,149872.67
2019-02-09T23:37:55.819Z,149867.59
2019-02-09T23:40:26.431Z,149877.75
2019-02-09T23:42:56.986Z,149871.39
2019-02-09T23:45:27.489Z,149872.67
2019-02-09T23:47:58.034Z,149870.16
2019-02-09T23:50:28.830Z,149872.67
2019-02-09T23:52:59.569Z,149882.81
2019-02-09T23:55:30.515Z,149881.58
2019-02-09T23:58:01.539Z,149895.53
